sensor_id;sensor_type;location;lat;lon;timestamp;P1;durP1;ratioP1;P2;durP2;ratioP2
7365;SDS011;3723;52.220;8.792;2023-07-31T00:00:11;35.10;;;3.07;;
7365;SDS011;3723;52.220;8.792;2023-07-31T00:02:41;35.60;;;2.40;;
7365;SDS011;3723;52.220;8.792;2023-07-31T00:05:08;34.83;;;2.63;;
7365;SDS011;3723;52.220;8.792;2023-07-31T00:07:36;36.40;;;2.57;;
7365;SDS011;3723;52.220;8.792;2023-07-31T00:10:03;38.87;;;2.40;;
7365;SDS011;3723;52.220;8.792;2023-07-31T00:12:31;34.20;;;1.70;;
7365;SDS011;3723;52.220;8.792;2023-07-31T00:14:57;35.30;;;2.30;;
7365;SDS011;3723;52.220;8.792;2023-07-31T00:17:24;35.53;;;1.77;;
7365;SDS011;3723;52.220;8.792;2023-07-31T00:19:51;34.90;;;1.77;;
7365;SDS011;3723;52.220;8.792;2023-07-31T00:22:19;36.93;;;2.10;;
7365;SDS011;3723;52.220;8.792;2023-07-31T00:24:47;35.00;;;1.60;;
7365;SDS011;3723;52.220;8.792;2023-07-31T00:27:15;35.50;;;1.60;;
7365;SDS011;3723;52.220;8.792;2023-07-31T00:29:42;34.37;;;1.70;;
7365;SDS011;3723;52.220;8.792;2023-07-31T00:32:09;34.90;;;2.20;;
7365;SDS011;3723;52.220;8.792;2023-07-31T00:34:37;34.20;;;2.00;;
7365;SDS011;3723;52.220;8.792;2023-07-31T00:37:04;33.97;;;1.87;;
7365;SDS011;3723;52.220;8.792;2023-07-31T00:39:33;34.37;;;2.13;;
7365;SDS011;3723;52.220;8.792;2023-07-31T00:42:02;34.20;;;2.10;;
7365;SDS011;3723;52.220;8.792;2023-07-31T00:44:29;33.50;;;1.70;;
7365;SDS011;3723;52.220;8.792;2023-07-31T00:46:56;33.67;;;2.17;;
7365;SDS011;3723;52.220;8.792;2023-07-31T00:49:24;35.30;;;2.70;;
7365;SDS011;3723;52.220;8.792;2023-07-31T00:51:51;32.70;;;1.90;;
7365;SDS011;3723;52.220;8.792;2023-07-31T00:54:19;35.00;;;2.50;;
7365;SDS011;3723;52.220;8.792;2023-07-31T00:56:46;31.60;;;1.60;;
7365;SDS011;3723;52.220;8.792;2023-07-31T00:59:15;32.03;;;1.73;;
7365;SDS011;3723;52.220;8.792;2023-07-31T01:01:43;33.70;;;2.07;;
7365;SDS011;3723;52.220;8.792;2023-07-31T01:04:11;33.27;;;1.83;;
7365;SDS011;3723;52.220;8.792;2023-07-31T01:06:40;34.20;;;2.10;;
7365;SDS011;3723;52.220;8.792;2023-07-31T01:09:15;34.13;;;1.53;;
7365;SDS011;3723;52.220;8.792;2023-07-31T01:11:46;34.27;;;1.80;;
7365;SDS011;3723;52.220;8.792;2023-07-31T01:14:19;34.30;;;2.07;;
7365;SDS011;3723;52.220;8.792;2023-07-31T01:16:46;33.90;;;2.37;;
7365;SDS011;3723;52.220;8.792;2023-07-31T01:19:13;33.53;;;1.93;;
7365;SDS011;3723;52.220;8.792;2023-07-31T01:21:52;33.73;;;2.17;;
7365;SDS011;3723;52.220;8.792;2023-07-31T01:24:35;36.20;;;1.97;;
7365;SDS011;3723;52.220;8.792;2023-07-31T01:27:12;34.23;;;2.20;;
7365;SDS011;3723;52.220;8.792;2023-07-31T01:29:43;33.07;;;2.20;;
7365;SDS011;3723;52.220;8.792;2023-07-31T01:32:13;33.67;;;2.27;;
7365;SDS011;3723;52.220;8.792;2023-07-31T01:34:44;34.53;;;1.93;;
7365;SDS011;3723;52.220;8.792;2023-07-31T01:37:11;36.10;;;2.20;;
7365;SDS011;3723;52.220;8.792;2023-07-31T01:39:38;36.40;;;2.30;;
7365;SDS011;3723;52.220;8.792;2023-07-31T01:42:05;37.23;;;2.30;;
7365;SDS011;3723;52.220;8.792;2023-07-31T01:44:34;36.17;;;2.37;;
7365;SDS011;3723;52.220;8.792;2023-07-31T01:47:01;38.43;;;2.03;;
7365;SDS011;3723;52.220;8.792;2023-07-31T01:49:28;36.50;;;2.50;;
7365;SDS011;3723;52.220;8.792;2023-07-31T01:51:55;36.83;;;3.03;;
7365;SDS011;3723;52.220;8.792;2023-07-31T01:54:22;34.13;;;2.80;;
7365;SDS011;3723;52.220;8.792;2023-07-31T01:56:48;34.53;;;2.63;;
7365;SDS011;3723;52.220;8.792;2023-07-31T01:59:15;34.77;;;2.60;;
7365;SDS011;3723;52.220;8.792;2023-07-31T02:01:43;33.43;;;2.33;;
7365;SDS011;3723;52.220;8.792;2023-07-31T02:04:10;34.03;;;2.30;;
7365;SDS011;3723;52.220;8.792;2023-07-31T02:06:37;34.80;;;2.83;;
7365;SDS011;3723;52.220;8.792;2023-07-31T02:09:05;34.57;;;2.50;;
7365;SDS011;3723;52.220;8.792;2023-07-31T02:11:32;35.87;;;2.00;;
7365;SDS011;3723;52.220;8.792;2023-07-31T02:13:58;36.17;;;2.13;;
7365;SDS011;3723;52.220;8.792;2023-07-31T02:16:25;37.63;;;2.70;;
7365;SDS011;3723;52.220;8.792;2023-07-31T02:18:53;36.40;;;2.60;;
7365;SDS011;3723;52.220;8.792;2023-07-31T02:21:20;35.13;;;2.53;;
7365;SDS011;3723;52.220;8.792;2023-07-31T02:23:47;35.00;;;2.93;;
7365;SDS011;3723;52.220;8.792;2023-07-31T02:26:14;33.50;;;2.03;;
7365;SDS011;3723;52.220;8.792;2023-07-31T02:28:41;32.77;;;1.93;;
7365;SDS011;3723;52.220;8.792;2023-07-31T02:31:08;33.67;;;2.17;;
7365;SDS011;3723;52.220;8.792;2023-07-31T02:33:35;33.53;;;1.90;;
7365;SDS011;3723;52.220;8.792;2023-07-31T02:36:03;34.33;;;2.07;;
7365;SDS011;3723;52.220;8.792;2023-07-31T02:38:30;36.77;;;1.80;;
7365;SDS011;3723;52.220;8.792;2023-07-31T02:40:57;37.60;;;1.43;;
7365;SDS011;3723;52.220;8.792;2023-07-31T02:43:24;36.60;;;1.87;;
7365;SDS011;3723;52.220;8.792;2023-07-31T02:45:51;35.60;;;1.90;;
7365;SDS011;3723;52.220;8.792;2023-07-31T02:48:18;37.17;;;1.70;;
7365;SDS011;3723;52.220;8.792;2023-07-31T02:50:45;36.07;;;2.63;;
7365;SDS011;3723;52.220;8.792;2023-07-31T02:53:16;35.90;;;1.90;;
7365;SDS011;3723;52.220;8.792;2023-07-31T02:55:43;36.30;;;1.60;;
7365;SDS011;3723;52.220;8.792;2023-07-31T02:58:10;36.73;;;1.80;;
7365;SDS011;3723;52.220;8.792;2023-07-31T03:00:41;36.93;;;2.03;;
7365;SDS011;3723;52.220;8.792;2023-07-31T03:03:08;36.43;;;2.20;;
7365;SDS011;3723;52.220;8.792;2023-07-31T03:05:35;35.53;;;2.03;;
7365;SDS011;3723;52.220;8.792;2023-07-31T03:08:02;34.83;;;2.00;;
7365;SDS011;3723;52.220;8.792;2023-07-31T03:10:31;32.90;;;1.80;;
7365;SDS011;3723;52.220;8.792;2023-07-31T03:12:58;32.77;;;1.67;;
7365;SDS011;3723;52.220;8.792;2023-07-31T03:15:24;33.70;;;2.10;;
7365;SDS011;3723;52.220;8.792;2023-07-31T03:17:51;31.87;;;1.50;;
7365;SDS011;3723;52.220;8.792;2023-07-31T03:20:18;31.80;;;1.80;;
7365;SDS011;3723;52.220;8.792;2023-07-31T03:22:45;32.20;;;1.43;;
7365;SDS011;3723;52.220;8.792;2023-07-31T03:25:12;31.87;;;1.50;;
7365;SDS011;3723;52.220;8.792;2023-07-31T03:27:40;32.00;;;1.63;;
7365;SDS011;3723;52.220;8.792;2023-07-31T03:30:07;31.70;;;1.33;;
7365;SDS011;3723;52.220;8.792;2023-07-31T03:32:35;30.90;;;1.30;;
7365;SDS011;3723;52.220;8.792;2023-07-31T03:35:01;29.60;;;1.20;;
7365;SDS011;3723;52.220;8.792;2023-07-31T03:37:30;31.70;;;1.20;;
7365;SDS011;3723;52.220;8.792;2023-07-31T03:39:57;28.77;;;1.30;;
7365;SDS011;3723;52.220;8.792;2023-07-31T03:42:24;29.37;;;1.50;;
7365;SDS011;3723;52.220;8.792;2023-07-31T03:44:52;28.73;;;1.13;;
7365;SDS011;3723;52.220;8.792;2023-07-31T03:47:19;28.70;;;1.10;;
7365;SDS011;3723;52.220;8.792;2023-07-31T03:49:46;28.03;;;1.07;;
7365;SDS011;3723;52.220;8.792;2023-07-31T03:52:13;29.10;;;1.50;;
7365;SDS011;3723;52.220;8.792;2023-07-31T03:54:40;29.70;;;1.40;;
7365;SDS011;3723;52.220;8.792;2023-07-31T03:57:06;29.77;;;1.10;;
7365;SDS011;3723;52.220;8.792;2023-07-31T03:59:33;29.20;;;1.10;;
7365;SDS011;3723;52.220;8.792;2023-07-31T04:02:01;29.33;;;1.10;;
7365;SDS011;3723;52.220;8.792;2023-07-31T04:04:29;30.90;;;1.77;;
7365;SDS011;3723;52.220;8.792;2023-07-31T04:06:55;29.37;;;1.60;;
7365;SDS011;3723;52.220;8.792;2023-07-31T04:09:22;34.10;;;2.00;;
7365;SDS011;3723;52.220;8.792;2023-07-31T04:11:50;28.27;;;1.33;;
7365;SDS011;3723;52.220;8.792;2023-07-31T04:14:17;30.07;;;1.67;;
7365;SDS011;3723;52.220;8.792;2023-07-31T04:16:44;34.10;;;2.30;;
7365;SDS011;3723;52.220;8.792;2023-07-31T04:19:12;31.60;;;2.10;;
7365;SDS011;3723;52.220;8.792;2023-07-31T04:21:41;32.17;;;2.17;;
7365;SDS011;3723;52.220;8.792;2023-07-31T04:24:08;35.40;;;2.40;;
7365;SDS011;3723;52.220;8.792;2023-07-31T04:26:35;36.40;;;3.00;;
7365;SDS011;3723;52.220;8.792;2023-07-31T04:29:02;35.30;;;3.60;;
7365;SDS011;3723;52.220;8.792;2023-07-31T04:31:29;33.03;;;3.50;;
7365;SDS011;3723;52.220;8.792;2023-07-31T04:33:56;37.73;;;4.30;;
7365;SDS011;3723;52.220;8.792;2023-07-31T04:36:24;32.30;;;3.53;;
7365;SDS011;3723;52.220;8.792;2023-07-31T04:38:51;34.33;;;4.40;;
7365;SDS011;3723;52.220;8.792;2023-07-31T04:41:17;34.10;;;3.33;;
7365;SDS011;3723;52.220;8.792;2023-07-31T04:43:44;35.03;;;4.50;;
7365;SDS011;3723;52.220;8.792;2023-07-31T04:46:11;35.13;;;4.60;;
7365;SDS011;3723;52.220;8.792;2023-07-31T04:48:38;38.00;;;4.03;;
7365;SDS011;3723;52.220;8.792;2023-07-31T04:51:05;38.23;;;4.30;;
7365;SDS011;3723;52.220;8.792;2023-07-31T04:53:33;37.30;;;3.93;;
7365;SDS011;3723;52.220;8.792;2023-07-31T04:56:00;41.37;;;5.20;;
7365;SDS011;3723;52.220;8.792;2023-07-31T04:58:27;36.10;;;4.87;;
7365;SDS011;3723;52.220;8.792;2023-07-31T05:00:54;36.37;;;3.70;;
7365;SDS011;3723;52.220;8.792;2023-07-31T05:03:21;39.03;;;5.10;;
7365;SDS011;3723;52.220;8.792;2023-07-31T05:05:47;37.77;;;5.30;;
7365;SDS011;3723;52.220;8.792;2023-07-31T05:08:16;37.73;;;5.67;;
7365;SDS011;3723;52.220;8.792;2023-07-31T05:10:44;34.53;;;3.67;;
7365;SDS011;3723;52.220;8.792;2023-07-31T05:13:11;36.23;;;5.07;;
7365;SDS011;3723;52.220;8.792;2023-07-31T05:15:38;45.63;;;3.63;;
7365;SDS011;3723;52.220;8.792;2023-07-31T05:18:07;39.93;;;6.63;;
7365;SDS011;3723;52.220;8.792;2023-07-31T05:20:33;41.07;;;4.73;;
7365;SDS011;3723;52.220;8.792;2023-07-31T05:23:00;49.20;;;5.30;;
7365;SDS011;3723;52.220;8.792;2023-07-31T05:25:27;38.20;;;4.63;;
7365;SDS011;3723;52.220;8.792;2023-07-31T05:27:56;41.17;;;4.80;;
7365;SDS011;3723;52.220;8.792;2023-07-31T05:30:23;44.67;;;4.80;;
7365;SDS011;3723;52.220;8.792;2023-07-31T05:32:49;44.03;;;4.60;;
7365;SDS011;3723;52.220;8.792;2023-07-31T05:35:16;41.37;;;4.70;;
7365;SDS011;3723;52.220;8.792;2023-07-31T05:37:43;41.73;;;5.33;;
7365;SDS011;3723;52.220;8.792;2023-07-31T05:40:10;41.10;;;4.17;;
7365;SDS011;3723;52.220;8.792;2023-07-31T05:42:37;43.90;;;5.40;;
7365;SDS011;3723;52.220;8.792;2023-07-31T05:45:06;46.43;;;6.57;;
7365;SDS011;3723;52.220;8.792;2023-07-31T05:47:33;45.27;;;6.47;;
7365;SDS011;3723;52.220;8.792;2023-07-31T05:50:00;42.40;;;6.43;;
7365;SDS011;3723;52.220;8.792;2023-07-31T05:52:27;38.40;;;5.40;;
7365;SDS011;3723;52.220;8.792;2023-07-31T05:54:55;43.10;;;5.40;;
7365;SDS011;3723;52.220;8.792;2023-07-31T05:57:21;44.70;;;5.60;;
7365;SDS011;3723;52.220;8.792;2023-07-31T05:59:49;45.03;;;4.60;;
7365;SDS011;3723;52.220;8.792;2023-07-31T06:02:17;40.57;;;4.50;;
7365;SDS011;3723;52.220;8.792;2023-07-31T06:04:44;43.47;;;5.30;;
7365;SDS011;3723;52.220;8.792;2023-07-31T06:07:14;40.20;;;5.20;;
7365;SDS011;3723;52.220;8.792;2023-07-31T06:09:41;37.43;;;4.40;;
7365;SDS011;3723;52.220;8.792;2023-07-31T06:12:08;38.23;;;5.23;;
7365;SDS011;3723;52.220;8.792;2023-07-31T06:14:35;40.00;;;4.73;;
7365;SDS011;3723;52.220;8.792;2023-07-31T06:17:02;38.40;;;4.13;;
7365;SDS011;3723;52.220;8.792;2023-07-31T06:19:30;42.43;;;4.40;;
7365;SDS011;3723;52.220;8.792;2023-07-31T06:21:57;42.67;;;4.97;;
7365;SDS011;3723;52.220;8.792;2023-07-31T06:24:23;42.10;;;5.40;;
7365;SDS011;3723;52.220;8.792;2023-07-31T06:26:50;45.37;;;6.60;;
7365;SDS011;3723;52.220;8.792;2023-07-31T06:29:17;49.60;;;4.77;;
7365;SDS011;3723;52.220;8.792;2023-07-31T06:31:44;46.73;;;3.43;;
7365;SDS011;3723;52.220;8.792;2023-07-31T06:34:11;47.77;;;3.93;;
7365;SDS011;3723;52.220;8.792;2023-07-31T06:36:39;44.10;;;5.20;;
7365;SDS011;3723;52.220;8.792;2023-07-31T06:39:06;44.33;;;3.80;;
7365;SDS011;3723;52.220;8.792;2023-07-31T06:41:34;42.93;;;3.60;;
7365;SDS011;3723;52.220;8.792;2023-07-31T06:44:01;45.90;;;3.70;;
7365;SDS011;3723;52.220;8.792;2023-07-31T06:46:27;43.67;;;3.90;;
7365;SDS011;3723;52.220;8.792;2023-07-31T06:48:54;46.47;;;4.30;;
7365;SDS011;3723;52.220;8.792;2023-07-31T06:51:21;46.53;;;3.87;;
7365;SDS011;3723;52.220;8.792;2023-07-31T06:53:51;47.53;;;3.67;;
7365;SDS011;3723;52.220;8.792;2023-07-31T06:56:17;45.50;;;4.63;;
7365;SDS011;3723;52.220;8.792;2023-07-31T06:58:45;43.43;;;4.40;;
7365;SDS011;3723;52.220;8.792;2023-07-31T07:01:12;46.60;;;6.13;;
7365;SDS011;3723;52.220;8.792;2023-07-31T07:03:39;58.00;;;7.37;;
7365;SDS011;3723;52.220;8.792;2023-07-31T07:06:06;42.47;;;5.57;;
7365;SDS011;3723;52.220;8.792;2023-07-31T07:08:33;40.40;;;4.27;;
7365;SDS011;3723;52.220;8.792;2023-07-31T07:11:01;40.77;;;5.17;;
7365;SDS011;3723;52.220;8.792;2023-07-31T07:13:28;38.33;;;4.37;;
7365;SDS011;3723;52.220;8.792;2023-07-31T07:15:55;44.27;;;4.67;;
7365;SDS011;3723;52.220;8.792;2023-07-31T07:18:22;41.53;;;4.47;;
7365;SDS011;3723;52.220;8.792;2023-07-31T07:20:49;43.67;;;4.67;;
7365;SDS011;3723;52.220;8.792;2023-07-31T07:23:17;44.20;;;7.83;;
7365;SDS011;3723;52.220;8.792;2023-07-31T07:25:44;53.50;;;10.33;;
7365;SDS011;3723;52.220;8.792;2023-07-31T07:28:13;45.60;;;13.70;;
7365;SDS011;3723;52.220;8.792;2023-07-31T07:30:40;39.47;;;9.00;;
7365;SDS011;3723;52.220;8.792;2023-07-31T07:33:07;49.33;;;13.00;;
7365;SDS011;3723;52.220;8.792;2023-07-31T07:35:34;53.43;;;12.00;;
7365;SDS011;3723;52.220;8.792;2023-07-31T07:38:01;38.93;;;8.37;;
7365;SDS011;3723;52.220;8.792;2023-07-31T07:40:29;32.23;;;4.33;;
7365;SDS011;3723;52.220;8.792;2023-07-31T07:42:55;33.23;;;3.10;;
7365;SDS011;3723;52.220;8.792;2023-07-31T07:45:24;30.60;;;2.60;;
7365;SDS011;3723;52.220;8.792;2023-07-31T07:47:51;39.40;;;3.40;;
7365;SDS011;3723;52.220;8.792;2023-07-31T07:50:18;38.00;;;2.87;;
7365;SDS011;3723;52.220;8.792;2023-07-31T07:52:45;39.13;;;2.60;;
7365;SDS011;3723;52.220;8.792;2023-07-31T07:55:12;38.43;;;2.67;;
7365;SDS011;3723;52.220;8.792;2023-07-31T07:57:39;35.27;;;2.93;;
7365;SDS011;3723;52.220;8.792;2023-07-31T08:00:06;40.57;;;4.90;;
7365;SDS011;3723;52.220;8.792;2023-07-31T08:02:36;35.77;;;3.57;;
7365;SDS011;3723;52.220;8.792;2023-07-31T08:05:03;35.33;;;3.30;;
7365;SDS011;3723;52.220;8.792;2023-07-31T08:07:31;35.73;;;5.90;;
7365;SDS011;3723;52.220;8.792;2023-07-31T08:09:57;37.33;;;6.37;;
7365;SDS011;3723;52.220;8.792;2023-07-31T08:12:24;42.07;;;9.83;;
7365;SDS011;3723;52.220;8.792;2023-07-31T08:14:51;41.33;;;10.63;;
7365;SDS011;3723;52.220;8.792;2023-07-31T08:17:18;45.27;;;18.20;;
7365;SDS011;3723;52.220;8.792;2023-07-31T08:19:46;47.93;;;16.13;;
7365;SDS011;3723;52.220;8.792;2023-07-31T08:22:13;42.77;;;9.10;;
7365;SDS011;3723;52.220;8.792;2023-07-31T08:24:40;43.10;;;12.97;;
7365;SDS011;3723;52.220;8.792;2023-07-31T08:27:07;51.37;;;14.90;;
7365;SDS011;3723;52.220;8.792;2023-07-31T08:29:34;39.77;;;10.30;;
7365;SDS011;3723;52.220;8.792;2023-07-31T08:32:01;44.13;;;10.37;;
7365;SDS011;3723;52.220;8.792;2023-07-31T08:34:28;43.07;;;11.73;;
7365;SDS011;3723;52.220;8.792;2023-07-31T08:36:56;44.67;;;8.93;;
7365;SDS011;3723;52.220;8.792;2023-07-31T08:39:23;44.30;;;9.10;;
7365;SDS011;3723;52.220;8.792;2023-07-31T08:41:50;46.03;;;7.63;;
7365;SDS011;3723;52.220;8.792;2023-07-31T08:44:17;43.47;;;8.83;;
7365;SDS011;3723;52.220;8.792;2023-07-31T08:46:45;48.60;;;9.87;;
7365;SDS011;3723;52.220;8.792;2023-07-31T08:49:13;47.80;;;12.37;;
7365;SDS011;3723;52.220;8.792;2023-07-31T08:51:41;43.07;;;11.57;;
7365;SDS011;3723;52.220;8.792;2023-07-31T08:54:10;44.57;;;7.00;;
7365;SDS011;3723;52.220;8.792;2023-07-31T08:56:39;44.33;;;5.77;;
7365;SDS011;3723;52.220;8.792;2023-07-31T08:59:06;53.20;;;11.43;;
7365;SDS011;3723;52.220;8.792;2023-07-31T09:01:35;40.80;;;9.90;;
7365;SDS011;3723;52.220;8.792;2023-07-31T09:04:07;40.27;;;9.43;;
7365;SDS011;3723;52.220;8.792;2023-07-31T09:06:36;36.40;;;9.97;;
7365;SDS011;3723;52.220;8.792;2023-07-31T09:09:04;31.17;;;4.40;;
7365;SDS011;3723;52.220;8.792;2023-07-31T09:11:33;36.03;;;9.80;;
7365;SDS011;3723;52.220;8.792;2023-07-31T09:14:00;37.67;;;11.33;;
7365;SDS011;3723;52.220;8.792;2023-07-31T09:16:33;36.43;;;6.70;;
7365;SDS011;3723;52.220;8.792;2023-07-31T09:19:00;30.70;;;3.97;;
7365;SDS011;3723;52.220;8.792;2023-07-31T09:21:28;28.67;;;2.13;;
7365;SDS011;3723;52.220;8.792;2023-07-31T09:23:55;28.57;;;2.90;;
7365;SDS011;3723;52.220;8.792;2023-07-31T09:26:28;28.20;;;2.00;;
7365;SDS011;3723;52.220;8.792;2023-07-31T09:28:57;29.57;;;2.37;;
7365;SDS011;3723;52.220;8.792;2023-07-31T09:31:38;27.37;;;1.83;;
7365;SDS011;3723;52.220;8.792;2023-07-31T09:34:06;28.00;;;2.23;;
7365;SDS011;3723;52.220;8.792;2023-07-31T09:36:39;39.00;;;1.83;;
7365;SDS011;3723;52.220;8.792;2023-07-31T09:39:08;30.50;;;1.80;;
7365;SDS011;3723;52.220;8.792;2023-07-31T09:41:36;28.50;;;2.57;;
7365;SDS011;3723;52.220;8.792;2023-07-31T09:44:07;29.50;;;2.37;;
7365;SDS011;3723;52.220;8.792;2023-07-31T09:46:34;32.13;;;1.90;;
7365;SDS011;3723;52.220;8.792;2023-07-31T09:49:06;30.60;;;1.80;;
7365;SDS011;3723;52.220;8.792;2023-07-31T09:51:35;29.27;;;1.63;;
7365;SDS011;3723;52.220;8.792;2023-07-31T09:54:08;29.70;;;2.03;;
7365;SDS011;3723;52.220;8.792;2023-07-31T09:56:37;33.43;;;2.10;;
7365;SDS011;3723;52.220;8.792;2023-07-31T09:59:09;51.00;;;3.00;;
7365;SDS011;3723;52.220;8.792;2023-07-31T10:01:38;42.50;;;2.73;;
7365;SDS011;3723;52.220;8.792;2023-07-31T10:04:07;43.07;;;3.13;;
7365;SDS011;3723;52.220;8.792;2023-07-31T10:06:35;49.97;;;2.80;;
7365;SDS011;3723;52.220;8.792;2023-07-31T10:09:03;48.40;;;2.60;;
7365;SDS011;3723;52.220;8.792;2023-07-31T10:11:33;49.57;;;2.60;;
7365;SDS011;3723;52.220;8.792;2023-07-31T10:14:03;60.20;;;4.43;;
7365;SDS011;3723;52.220;8.792;2023-07-31T10:16:33;56.33;;;3.30;;
7365;SDS011;3723;52.220;8.792;2023-07-31T10:19:01;56.30;;;3.07;;
7365;SDS011;3723;52.220;8.792;2023-07-31T10:21:29;56.60;;;3.70;;
7365;SDS011;3723;52.220;8.792;2023-07-31T10:24:00;58.70;;;4.33;;
7365;SDS011;3723;52.220;8.792;2023-07-31T10:26:28;60.50;;;4.60;;
7365;SDS011;3723;52.220;8.792;2023-07-31T10:28:57;57.13;;;3.63;;
7365;SDS011;3723;52.220;8.792;2023-07-31T10:31:24;57.23;;;3.33;;
7365;SDS011;3723;52.220;8.792;2023-07-31T10:33:54;56.87;;;3.90;;
7365;SDS011;3723;52.220;8.792;2023-07-31T10:36:23;48.83;;;2.50;;
7365;SDS011;3723;52.220;8.792;2023-07-31T10:38:50;42.27;;;3.00;;
7365;SDS011;3723;52.220;8.792;2023-07-31T10:41:17;47.90;;;2.80;;
7365;SDS011;3723;52.220;8.792;2023-07-31T10:43:45;44.73;;;2.50;;
7365;SDS011;3723;52.220;8.792;2023-07-31T10:46:13;41.63;;;2.63;;
7365;SDS011;3723;52.220;8.792;2023-07-31T10:48:41;38.87;;;2.60;;
7365;SDS011;3723;52.220;8.792;2023-07-31T10:51:10;34.73;;;2.03;;
7365;SDS011;3723;52.220;8.792;2023-07-31T10:53:39;35.67;;;1.83;;
7365;SDS011;3723;52.220;8.792;2023-07-31T10:56:07;33.20;;;2.13;;
7365;SDS011;3723;52.220;8.792;2023-07-31T10:58:34;31.57;;;1.30;;
7365;SDS011;3723;52.220;8.792;2023-07-31T11:01:03;29.93;;;1.30;;
7365;SDS011;3723;52.220;8.792;2023-07-31T11:03:41;27.87;;;0.93;;
7365;SDS011;3723;52.220;8.792;2023-07-31T11:06:10;32.40;;;2.10;;
7365;SDS011;3723;52.220;8.792;2023-07-31T11:08:41;32.43;;;1.83;;
7365;SDS011;3723;52.220;8.792;2023-07-31T11:11:09;32.00;;;1.53;;
7365;SDS011;3723;52.220;8.792;2023-07-31T11:13:40;30.17;;;1.20;;
7365;SDS011;3723;52.220;8.792;2023-07-31T11:16:08;29.77;;;1.30;;
7365;SDS011;3723;52.220;8.792;2023-07-31T11:18:38;27.50;;;1.13;;
7365;SDS011;3723;52.220;8.792;2023-07-31T11:21:05;29.13;;;1.07;;
7365;SDS011;3723;52.220;8.792;2023-07-31T11:23:36;28.70;;;0.90;;
7365;SDS011;3723;52.220;8.792;2023-07-31T11:26:04;29.43;;;1.10;;
7365;SDS011;3723;52.220;8.792;2023-07-31T11:28:31;31.00;;;1.40;;
7365;SDS011;3723;52.220;8.792;2023-07-31T11:30:59;35.17;;;1.83;;
7365;SDS011;3723;52.220;8.792;2023-07-31T11:33:27;30.43;;;1.13;;
7365;SDS011;3723;52.220;8.792;2023-07-31T11:35:54;27.87;;;0.90;;
7365;SDS011;3723;52.220;8.792;2023-07-31T11:38:21;28.20;;;1.10;;
7365;SDS011;3723;52.220;8.792;2023-07-31T11:40:51;31.53;;;1.50;;
7365;SDS011;3723;52.220;8.792;2023-07-31T11:43:18;30.23;;;1.03;;
7365;SDS011;3723;52.220;8.792;2023-07-31T11:45:47;33.23;;;1.40;;
7365;SDS011;3723;52.220;8.792;2023-07-31T11:48:21;29.17;;;1.00;;
7365;SDS011;3723;52.220;8.792;2023-07-31T11:50:49;32.23;;;1.23;;
7365;SDS011;3723;52.220;8.792;2023-07-31T11:53:18;32.60;;;1.30;;
7365;SDS011;3723;52.220;8.792;2023-07-31T11:55:48;29.50;;;1.00;;
7365;SDS011;3723;52.220;8.792;2023-07-31T11:58:17;28.03;;;1.00;;
7365;SDS011;3723;52.220;8.792;2023-07-31T12:00:45;28.40;;;1.20;;
7365;SDS011;3723;52.220;8.792;2023-07-31T12:03:12;33.33;;;1.67;;
7365;SDS011;3723;52.220;8.792;2023-07-31T12:05:39;33.23;;;1.50;;
7365;SDS011;3723;52.220;8.792;2023-07-31T12:08:09;33.57;;;1.90;;
7365;SDS011;3723;52.220;8.792;2023-07-31T12:10:38;35.33;;;1.67;;
7365;SDS011;3723;52.220;8.792;2023-07-31T12:13:08;32.03;;;1.70;;
7365;SDS011;3723;52.220;8.792;2023-07-31T12:15:38;34.70;;;2.07;;
7365;SDS011;3723;52.220;8.792;2023-07-31T12:18:07;37.60;;;1.60;;
7365;SDS011;3723;52.220;8.792;2023-07-31T12:20:35;43.40;;;1.70;;
7365;SDS011;3723;52.220;8.792;2023-07-31T12:23:12;49.00;;;1.77;;
7365;SDS011;3723;52.220;8.792;2023-07-31T12:25:40;42.67;;;1.70;;
7365;SDS011;3723;52.220;8.792;2023-07-31T12:28:08;52.13;;;2.60;;
7365;SDS011;3723;52.220;8.792;2023-07-31T12:30:38;58.17;;;5.47;;
7365;SDS011;3723;52.220;8.792;2023-07-31T12:33:06;75.13;;;20.73;;
7365;SDS011;3723;52.220;8.792;2023-07-31T12:35:39;89.37;;;41.43;;
7365;SDS011;3723;52.220;8.792;2023-07-31T12:38:07;73.27;;;19.60;;
7365;SDS011;3723;52.220;8.792;2023-07-31T12:40:36;88.73;;;32.20;;
7365;SDS011;3723;52.220;8.792;2023-07-31T12:43:03;73.00;;;17.20;;
7365;SDS011;3723;52.220;8.792;2023-07-31T12:45:32;62.10;;;7.50;;
7365;SDS011;3723;52.220;8.792;2023-07-31T12:47:59;57.87;;;4.77;;
7365;SDS011;3723;52.220;8.792;2023-07-31T12:50:26;52.80;;;3.50;;
7365;SDS011;3723;52.220;8.792;2023-07-31T12:52:53;70.83;;;15.70;;
7365;SDS011;3723;52.220;8.792;2023-07-31T12:55:21;70.07;;;16.07;;
7365;SDS011;3723;52.220;8.792;2023-07-31T12:57:50;69.10;;;16.03;;
7365;SDS011;3723;52.220;8.792;2023-07-31T13:00:17;56.87;;;5.40;;
7365;SDS011;3723;52.220;8.792;2023-07-31T13:02:52;66.30;;;14.70;;
7365;SDS011;3723;52.220;8.792;2023-07-31T13:05:19;65.47;;;13.60;;
7365;SDS011;3723;52.220;8.792;2023-07-31T13:07:48;68.23;;;15.43;;
7365;SDS011;3723;52.220;8.792;2023-07-31T13:10:15;60.57;;;5.80;;
7365;SDS011;3723;52.220;8.792;2023-07-31T13:12:43;58.40;;;3.87;;
7365;SDS011;3723;52.220;8.792;2023-07-31T13:15:10;54.67;;;3.60;;
7365;SDS011;3723;52.220;8.792;2023-07-31T13:17:39;55.93;;;2.97;;
7365;SDS011;3723;52.220;8.792;2023-07-31T13:20:08;43.90;;;1.83;;
7365;SDS011;3723;52.220;8.792;2023-07-31T13:22:35;43.67;;;2.20;;
7365;SDS011;3723;52.220;8.792;2023-07-31T13:25:02;40.67;;;1.97;;
7365;SDS011;3723;52.220;8.792;2023-07-31T13:27:30;40.60;;;2.67;;
7365;SDS011;3723;52.220;8.792;2023-07-31T13:29:57;39.33;;;2.37;;
7365;SDS011;3723;52.220;8.792;2023-07-31T13:32:26;40.63;;;2.30;;
7365;SDS011;3723;52.220;8.792;2023-07-31T13:34:52;49.23;;;4.33;;
7365;SDS011;3723;52.220;8.792;2023-07-31T13:37:26;42.47;;;3.17;;
7365;SDS011;3723;52.220;8.792;2023-07-31T13:39:54;37.63;;;3.07;;
7365;SDS011;3723;52.220;8.792;2023-07-31T13:42:21;39.10;;;2.77;;
7365;SDS011;3723;52.220;8.792;2023-07-31T13:44:48;35.67;;;3.00;;
7365;SDS011;3723;52.220;8.792;2023-07-31T13:47:14;35.60;;;2.73;;
7365;SDS011;3723;52.220;8.792;2023-07-31T13:49:41;33.10;;;3.30;;
7365;SDS011;3723;52.220;8.792;2023-07-31T13:52:08;35.50;;;3.20;;
7365;SDS011;3723;52.220;8.792;2023-07-31T13:54:37;35.60;;;3.40;;
7365;SDS011;3723;52.220;8.792;2023-07-31T13:57:04;37.03;;;4.00;;
7365;SDS011;3723;52.220;8.792;2023-07-31T13:59:31;45.67;;;3.00;;
7365;SDS011;3723;52.220;8.792;2023-07-31T14:02:01;46.40;;;4.60;;
7365;SDS011;3723;52.220;8.792;2023-07-31T14:04:28;65.33;;;13.10;;
7365;SDS011;3723;52.220;8.792;2023-07-31T14:06:56;83.23;;;30.97;;
7365;SDS011;3723;52.220;8.792;2023-07-31T14:09:23;89.13;;;20.83;;
7365;SDS011;3723;52.220;8.792;2023-07-31T14:11:52;87.90;;;24.67;;
7365;SDS011;3723;52.220;8.792;2023-07-31T14:14:18;101.47;;;34.90;;
7365;SDS011;3723;52.220;8.792;2023-07-31T14:16:45;188.30;;;170.67;;
7365;SDS011;3723;52.220;8.792;2023-07-31T14:19:13;173.87;;;156.87;;
7365;SDS011;3723;52.220;8.792;2023-07-31T14:21:40;204.97;;;186.27;;
7365;SDS011;3723;52.220;8.792;2023-07-31T14:24:06;224.90;;;205.00;;
7365;SDS011;3723;52.220;8.792;2023-07-31T14:26:33;166.43;;;149.57;;
7365;SDS011;3723;52.220;8.792;2023-07-31T14:29:02;84.43;;;35.30;;
7365;SDS011;3723;52.220;8.792;2023-07-31T14:31:29;168.67;;;152.40;;
7365;SDS011;3723;52.220;8.792;2023-07-31T14:33:56;218.13;;;198.00;;
7365;SDS011;3723;52.220;8.792;2023-07-31T14:36:22;171.73;;;155.17;;
7365;SDS011;3723;52.220;8.792;2023-07-31T14:38:51;249.20;;;228.13;;
7365;SDS011;3723;52.220;8.792;2023-07-31T14:41:18;235.17;;;213.93;;
7365;SDS011;3723;52.220;8.792;2023-07-31T14:43:45;105.17;;;32.23;;
7365;SDS011;3723;52.220;8.792;2023-07-31T14:46:13;100.57;;;34.20;;
7365;SDS011;3723;52.220;8.792;2023-07-31T14:48:43;102.53;;;34.00;;
7365;SDS011;3723;52.220;8.792;2023-07-31T14:51:10;93.90;;;36.40;;
7365;SDS011;3723;52.220;8.792;2023-07-31T14:53:37;95.77;;;44.97;;
7365;SDS011;3723;52.220;8.792;2023-07-31T14:56:05;97.27;;;46.47;;
7365;SDS011;3723;52.220;8.792;2023-07-31T14:58:32;100.93;;;49.73;;
7365;SDS011;3723;52.220;8.792;2023-07-31T15:00:59;88.27;;;36.57;;